»·PEaware :: N85AS KEUG-KPDX

N85AS :: KEUG-KPDX

FLIGHT INFORMATION

Flight Status: Arrived
Operator: Privately registered:
United States
More flights under this callsign
Pilot: Anders S. (12537)
Aircraft: CESSNA 208 CARAVAN
(C208)
More flights by this aircraft type
Origin: KEUG Mahlon Sweet
United States
Destination: KPDX Portland Intl
United States
More flights between these airports :: More routes between these airports
Route: +VFR
File this flight plan on PilotEdge
Remarks:
Altitude:
(Current/Filed)
10,500ft
Speed:
(Current/Filed)
450kts
Departed: 01-Sep-18 01:13 PM
Arrived: 01-Sep-18 01:48 PM
Distance/Time
Traveled:
92nm/0:35
Distance/Time
To Go:
Arrived

Flight Plot

Page will automatically refresh every two minutes.

Flight plan parsing failed; only flown route is shown


Map Options




Map Legend


Flown Route
Filed Route
Departure Airport
Arrival Airport
Navaid (VOR, NDB)
Fix

Horizontal Profiles

Position Reports

Time Latitude Longitude Heading Altitude Ground
Speed
01-Sep-18 13:00 44.123112 -123.210718 210 374ft 0kts
01-Sep-18 13:01 44.123112 -123.210718 210 374ft 0kts
01-Sep-18 13:02 44.123112 -123.210718 210 374ft 0kts
01-Sep-18 13:03 44.123112 -123.210718 210 374ft 0kts
01-Sep-18 13:04 44.123112 -123.210718 210 374ft 0kts
01-Sep-18 13:05 44.123112 -123.210718 210 374ft 0kts
01-Sep-18 13:06 44.123112 -123.210718 210 374ft 0kts
01-Sep-18 13:07 44.123108 -123.210721 210 374ft 0kts
01-Sep-18 13:08 44.123063 -123.210763 216 374ft 0kts
01-Sep-18 13:09 44.122122 -123.213157 216 374ft 8kts
01-Sep-18 13:10 44.120307 -123.214638 214 374ft 4kts
01-Sep-18 13:11 44.117622 -123.216899 199 374ft 6kts
01-Sep-18 13:12 44.114646 -123.217096 179 374ft 10kts
01-Sep-18 13:13 44.113691 -123.217777 278 374ft 0kts
01-Sep-18 13:14 44.124506 -123.218659 11 769ft 103kts
01-Sep-18 13:15 44.157145 -123.218436 17 2137ft 135kts
01-Sep-18 13:16 44.193718 -123.201412 18 3442ft 137kts
01-Sep-18 13:17 44.229351 -123.184767 12 4934ft 132kts
01-Sep-18 13:18 44.264546 -123.168698 12 6214ft 139kts
01-Sep-18 13:19 44.302148 -123.151471 12 7188ft 145kts
01-Sep-18 13:20 44.341436 -123.133169 12 8019ft 150kts
01-Sep-18 13:21 44.381892 -123.114417 12 8604ft 161kts
01-Sep-18 13:22 44.422883 -123.095273 13 8502ft 171kts
01-Sep-18 13:23 44.468042 -123.073801 12 8500ft 170kts
01-Sep-18 13:24 44.513252 -123.053095 12 8500ft 171kts
01-Sep-18 13:25 44.558650 -123.032225 12 8502ft 172kts
01-Sep-18 13:26 44.604535 -123.010921 12 8502ft 173kts
01-Sep-18 13:27 44.650106 -122.989695 12 8503ft 173kts
01-Sep-18 13:28 44.695247 -122.968038 14 8504ft 168kts
01-Sep-18 13:29 44.738873 -122.947248 14 8501ft 166kts
01-Sep-18 13:30 44.782791 -122.926404 14 8504ft 165kts
01-Sep-18 13:31 44.826500 -122.905706 14 8506ft 165kts
01-Sep-18 13:32 44.870522 -122.884322 14 8499ft 168kts
01-Sep-18 13:33 44.914240 -122.863795 11 8503ft 167kts
01-Sep-18 13:34 44.958970 -122.845290 9 8502ft 172kts
01-Sep-18 13:35 45.005713 -122.826463 9 8496ft 178kts
01-Sep-18 13:36 45.054753 -122.806251 10 8498ft 187kts
01-Sep-18 13:37 45.105058 -122.785275 9 8499ft 189kts
01-Sep-18 13:38 45.155690 -122.764340 10 8496ft 190kts
01-Sep-18 13:39 45.206515 -122.743170 10 8498ft 191kts
01-Sep-18 13:40 45.257588 -122.721775 10 8499ft 191kts
01-Sep-18 13:41 45.308909 -122.700731 9 8495ft 191kts
01-Sep-18 13:42 45.361297 -122.678826 12 7454ft 198kts
01-Sep-18 13:43 45.409972 -122.658527 15 6183ft 199kts
01-Sep-18 13:44 45.460679 -122.637182 12 4817ft 180kts
01-Sep-18 13:45 45.500577 -122.610722 29 3566ft 148kts
01-Sep-18 13:46 45.532998 -122.583081 27 2202ft 127kts
01-Sep-18 13:47 45.560524 -122.559836 27 903ft 104kts
01-Sep-18 13:49 45.579128 -122.580291 298 163ft 88kts
01-Sep-18 13:50 45.585878 -122.597788 296 35ft 23kts
01-Sep-18 13:51 45.586228 -122.600659 271 35ft 0kts
01-Sep-18 13:52 45.585997 -122.603270 247 35ft 8kts
01-Sep-18 13:53 45.585512 -122.603769 174 35ft 0kts

Navigation Log

Ident Type
Flight plan parsing failed, navigation log unavailable